Time;durP1;ratioP1;P1;durP2;ratioP2;P2;SDS_P1;SDS_P2;PMS_P1;PMS_P2;Temp;Humidity;BMP_temperature;BMP_pressure;BME280_temperature;BME280_humidity;BME280_pressure;Samples;Min_cycle;Max_cycle;Signal;HPM_P1;HPM_P2
2021/05/24 00:00:30;;;;;;;1.45;1.30;;;7.20;99.90;;;;;;5074540;28;20206;-72
2021/05/24 00:02:56;;;;;;;0.60;0.60;;;7.20;99.90;;;;;;5074404;28;20184;-73
2021/05/24 00:05:24;;;;;;;1.23;1.23;;;7.10;99.90;;;;;;5074087;28;20187;-71
2021/05/24 00:07:51;;;;;;;1.60;1.05;;;7.10;99.90;;;;;;5074646;28;20807;-72
2021/05/24 00:10:28;;;;;;;1.45;1.10;;;7.00;99.90;;;;;;5074289;28;20212;-71
2021/05/24 00:12:56;;;;;;;1.40;1.30;;;7.10;99.90;;;;;;5074378;28;20180;-72
2021/05/24 00:15:27;;;;;;;1.45;0.90;;;7.10;99.90;;;;;;5074298;28;20243;-72
2021/05/24 00:17:53;;;;;;;1.10;1.00;;;7.10;99.90;;;;;;5073753;28;20177;-72
2021/05/24 00:20:22;;;;;;;1.17;1.07;;;7.00;99.90;;;;;;5074098;28;20213;-72
2021/05/24 00:22:48;;;;;;;0.80;0.80;;;7.00;99.90;;;;;;5074316;28;20193;-71
2021/05/24 00:25:14;;;;;;;0.97;0.97;;;7.00;99.90;;;;;;5073694;28;20225;-72
2021/05/24 00:27:41;;;;;;;1.05;0.90;;;7.00;99.90;;;;;;5073929;28;20169;-72
2021/05/24 00:30:07;;;;;;;1.27;1.20;;;7.10;99.90;;;;;;5074102;28;20178;-72
2021/05/24 00:32:33;;;;;;;0.80;0.80;;;6.80;99.90;;;;;;5074082;28;20220;-72
2021/05/24 00:34:59;;;;;;;1.93;1.10;;;6.80;99.90;;;;;;5073746;28;20195;-72
2021/05/24 00:37:25;;;;;;;1.33;1.17;;;7.00;99.90;;;;;;5073600;28;20898;-72
2021/05/24 00:39:50;;;;;;;0.83;0.80;;;7.00;99.90;;;;;;5073860;28;20194;-72
2021/05/24 00:42:16;;;;;;;1.90;1.30;;;7.10;99.90;;;;;;5073286;28;20535;-72
2021/05/24 00:44:42;;;;;;;1.10;1.00;;;7.20;99.90;;;;;;5073615;28;20494;-72
2021/05/24 00:47:08;;;;;;;2.30;0.90;;;7.00;99.90;;;;;;5074152;28;20617;-72
2021/05/24 00:49:34;;;;;;;0.80;0.80;;;7.10;99.90;;;;;;5073735;28;20411;-72
2021/05/24 00:52:00;;;;;;;30.73;1.73;;;7.00;99.90;;;;;;5073550;28;20172;-72
2021/05/24 00:54:26;;;;;;;1.80;1.00;;;7.20;99.90;;;;;;5073684;28;20434;-72
2021/05/24 00:56:54;;;;;;;1.10;1.02;;;7.30;99.90;;;;;;5073381;28;20629;-72
2021/05/24 00:59:20;;;;;;;1.55;1.00;;;7.30;99.90;;;;;;5073834;28;20184;-72
2021/05/24 01:01:46;;;;;;;1.25;1.15;;;7.20;99.90;;;;;;5073724;28;20181;-72
2021/05/24 01:04:14;;;;;;;1.08;0.95;;;7.30;99.90;;;;;;5073254;28;20195;-72
2021/05/24 01:06:40;;;;;;;1.10;1.10;;;7.30;99.90;;;;;;5073323;28;20180;-71
2021/05/24 01:09:06;;;;;;;1.30;1.00;;;7.10;99.90;;;;;;5073187;28;20198;-71
2021/05/24 01:11:32;;;;;;;1.00;1.00;;;7.20;99.90;;;;;;5073402;28;20451;-72
2021/05/24 01:13:59;;;;;;;2.38;1.15;;;7.30;99.90;;;;;;5073593;28;20199;-72
2021/05/24 01:16:25;;;;;;;2.15;1.20;;;7.30;99.90;;;;;;5073292;28;20167;-71
2021/05/24 01:18:51;;;;;;;2.20;1.03;;;7.30;99.90;;;;;;5073481;28;20178;-72
2021/05/24 01:21:17;;;;;;;0.97;0.97;;;7.30;99.90;;;;;;5073432;28;20206;-72
2021/05/24 01:23:44;;;;;;;1.45;1.00;;;7.30;99.90;;;;;;5073366;28;20190;-72
2021/05/24 01:26:10;;;;;;;0.80;0.80;;;7.30;99.90;;;;;;5073267;28;20589;-71
2021/05/24 01:28:36;;;;;;;2.05;1.30;;;7.30;99.90;;;;;;5073283;28;20241;-71
2021/05/24 01:31:04;;;;;;;3.47;1.60;;;7.30;99.90;;;;;;5073334;28;20261;-71
2021/05/24 01:33:33;;;;;;;0.95;0.93;;;7.20;99.90;;;;;;5073174;28;20419;-71
2021/05/24 01:35:59;;;;;;;1.52;1.10;;;7.20;99.90;;;;;;5072980;28;20240;-72
2021/05/24 01:38:25;;;;;;;1.13;1.13;;;7.00;99.90;;;;;;5073317;28;20170;-71
2021/05/24 01:40:51;;;;;;;0.83;0.83;;;7.00;99.90;;;;;;5073428;28;20557;-72
2021/05/24 01:43:17;;;;;;;0.97;0.90;;;7.00;99.90;;;;;;5073099;28;20171;-71
2021/05/24 01:45:43;;;;;;;4.50;1.30;;;7.00;99.90;;;;;;5073045;28;20168;-72
2021/05/24 01:48:09;;;;;;;1.60;1.50;;;7.00;99.90;;;;;;5071935;28;20501;-71
2021/05/24 01:50:36;;;;;;;2.45;1.60;;;7.10;99.90;;;;;;5073147;28;20418;-72
2021/05/24 01:53:02;;;;;;;2.40;1.30;;;7.10;99.90;;;;;;5073192;28;20183;-72
2021/05/24 01:55:28;;;;;;;1.08;1.08;;;7.10;99.90;;;;;;5075068;28;20881;-72
2021/05/24 01:57:54;;;;;;;1.00;0.70;;;7.00;99.90;;;;;;5076911;28;20185;-71
2021/05/24 02:00:22;;;;;;;1.15;1.05;;;7.00;99.90;;;;;;5076795;28;20454;-71
2021/05/24 02:02:49;;;;;;;4.32;1.30;;;6.80;99.90;;;;;;5076802;28;20264;-71
2021/05/24 02:05:16;;;;;;;0.98;0.82;;;6.90;99.90;;;;;;5076604;28;20656;-72
2021/05/24 02:07:43;;;;;;;1.20;1.10;;;6.90;99.90;;;;;;5076577;28;20176;-71
2021/05/24 02:10:12;;;;;;;0.60;0.60;;;7.00;99.90;;;;;;5076450;28;20197;-71
2021/05/24 02:12:38;;;;;;;0.90;0.90;;;7.20;99.90;;;;;;5076665;28;20196;-72
2021/05/24 02:15:08;;;;;;;1.83;1.37;;;7.20;99.90;;;;;;5076243;28;20286;-71
2021/05/24 02:17:33;;;;;;;1.80;0.80;;;7.20;99.90;;;;;;5076538;28;20211;-72
2021/05/24 02:19:59;;;;;;;2.37;0.83;;;7.20;99.90;;;;;;5076294;28;20235;-72
2021/05/24 02:22:25;;;;;;;2.37;1.23;;;7.20;99.90;;;;;;5076611;28;20597;-72
2021/05/24 02:24:51;;;;;;;1.13;1.00;;;7.10;99.90;;;;;;5076390;28;20520;-72
2021/05/24 02:27:16;;;;;;;1.23;1.10;;;7.00;99.90;;;;;;5076060;28;20250;-72
2021/05/24 02:29:42;;;;;;;2.20;1.10;;;7.20;99.90;;;;;;5076319;28;20579;-72
2021/05/24 02:32:09;;;;;;;1.53;1.30;;;7.10;99.90;;;;;;5076372;28;20265;-72
2021/05/24 02:34:35;;;;;;;1.05;0.85;;;7.30;99.90;;;;;;5075976;28;20200;-71
2021/05/24 02:37:01;;;;;;;5.60;1.02;;;7.30;99.90;;;;;;5075875;28;20167;-72
2021/05/24 02:39:26;;;;;;;6.90;1.07;;;7.20;99.90;;;;;;5076006;28;20680;-72
2021/05/24 02:41:52;;;;;;;1.67;1.00;;;7.30;99.90;;;;;;5076051;28;20168;-71
2021/05/24 02:44:18;;;;;;;1.80;1.20;;;7.30;99.90;;;;;;5076004;28;20677;-72
2021/05/24 02:46:43;;;;;;;1.20;1.20;;;7.30;99.90;;;;;;5075784;28;20175;-72
2021/05/24 02:49:09;;;;;;;1.50;1.40;;;7.40;99.90;;;;;;5075847;28;20168;-72
2021/05/24 02:51:36;;;;;;;2.93;1.50;;;7.30;99.90;;;;;;5076263;28;20258;-72
2021/05/24 02:54:03;;;;;;;3.42;1.25;;;7.40;99.90;;;;;;5075685;28;20205;-72
2021/05/24 02:56:29;;;;;;;1.15;1.00;;;7.20;99.90;;;;;;5075669;28;20263;-72
2021/05/24 02:58:55;;;;;;;1.13;1.03;;;7.20;99.90;;;;;;5075840;28;20246;-72
2021/05/24 03:01:21;;;;;;;0.90;0.90;;;7.10;99.90;;;;;;5075751;28;20253;-72
2021/05/24 03:03:53;;;;;;;4.03;0.93;;;7.10;99.90;;;;;;5074238;28;20942;-72
2021/05/24 03:06:19;;;;;;;1.00;0.90;;;7.20;99.90;;;;;;5075039;28;20262;-72
2021/05/24 03:08:45;;;;;;;1.00;1.00;;;7.20;99.90;;;;;;5075585;28;20214;-72
2021/05/24 03:11:11;;;;;;;1.10;1.00;;;7.20;99.90;;;;;;5075707;28;20529;-71
2021/05/24 03:13:37;;;;;;;1.33;1.10;;;7.20;99.90;;;;;;5075508;28;20196;-72
2021/05/24 03:16:03;;;;;;;1.60;1.03;;;7.00;99.90;;;;;;5075062;28;20269;-72
2021/05/24 03:18:28;;;;;;;0.80;0.80;;;7.20;99.90;;;;;;5075302;28;20179;-72
2021/05/24 03:20:54;;;;;;;1.30;1.20;;;7.30;99.90;;;;;;5075245;28;20198;-72
2021/05/24 03:23:20;;;;;;;1.03;1.03;;;7.40;99.90;;;;;;5075392;28;20531;-71
2021/05/24 03:25:45;;;;;;;0.90;0.90;;;7.40;99.90;;;;;;5075022;28;20169;-72
2021/05/24 03:28:11;;;;;;;1.07;0.90;;;7.40;99.90;;;;;;5075309;28;20163;-71
2021/05/24 03:30:37;;;;;;;0.97;0.90;;;7.40;99.90;;;;;;5075219;28;20538;-72
2021/05/24 03:33:02;;;;;;;0.97;0.97;;;7.40;99.90;;;;;;5075004;28;20167;-72
2021/05/24 03:35:28;;;;;;;1.50;1.40;;;7.30;99.90;;;;;;5074790;28;20578;-72
2021/05/24 03:37:54;;;;;;;0.75;0.75;;;7.30;99.90;;;;;;5075121;28;20181;-72
2021/05/24 03:40:20;;;;;;;1.00;0.83;;;7.30;99.90;;;;;;5075017;28;20202;-71
2021/05/24 03:42:46;;;;;;;6.38;1.20;;;7.40;99.90;;;;;;5074793;28;20208;-72
2021/05/24 03:45:15;;;;;;;0.80;0.80;;;7.40;99.90;;;;;;5074517;28;20186;-71
2021/05/24 03:47:41;;;;;;;1.98;1.30;;;7.50;99.90;;;;;;5074663;28;20158;-72
2021/05/24 03:50:08;;;;;;;1.33;1.30;;;7.50;99.90;;;;;;5074870;28;20168;-72
2021/05/24 03:52:34;;;;;;;1.00;1.00;;;7.30;99.90;;;;;;5074504;28;20575;-71
2021/05/24 03:55:00;;;;;;;1.33;1.07;;;7.20;99.90;;;;;;5074473;28;20285;-72
2021/05/24 03:57:25;;;;;;;0.90;0.90;;;7.30;99.90;;;;;;5074567;28;20691;-72
2021/05/24 03:59:51;;;;;;;0.60;0.60;;;7.20;99.90;;;;;;5074587;28;20665;-72
2021/05/24 04:02:16;;;;;;;3.00;0.90;;;7.20;99.90;;;;;;5074612;28;20168;-71
2021/05/24 04:04:43;;;;;;;1.07;0.97;;;7.20;99.90;;;;;;5074339;28;20687;-72
2021/05/24 04:07:11;;;;;;;4.72;0.95;;;7.40;99.90;;;;;;5074270;28;20175;-72
2021/05/24 04:09:37;;;;;;;1.10;1.10;;;7.50;99.90;;;;;;5074138;28;20558;-71
2021/05/24 04:12:02;;;;;;;1.10;1.00;;;7.30;99.90;;;;;;5074407;28;20167;-72
2021/05/24 04:14:28;;;;;;;0.90;0.90;;;7.20;99.90;;;;;;5074097;28;21009;-72
2021/05/24 04:16:54;;;;;;;1.27;1.17;;;7.30;99.90;;;;;;5073466;28;20167;-71
2021/05/24 04:19:20;;;;;;;0.60;0.60;;;7.40;99.90;;;;;;5072682;28;20176;-73
2021/05/24 04:21:46;;;;;;;0.60;0.60;;;7.50;99.90;;;;;;5074158;28;20184;-72
2021/05/24 04:24:14;;;;;;;1.20;1.10;;;7.60;99.90;;;;;;5074077;28;20195;-71
2021/05/24 04:26:40;;;;;;;1.10;1.00;;;7.70;99.90;;;;;;5073783;28;20421;-72
2021/05/24 04:29:06;;;;;;;9.33;1.40;;;7.80;99.90;;;;;;5074065;28;20563;-73
2021/05/24 04:31:33;;;;;;;1.05;1.02;;;7.60;99.90;;;;;;5073878;28;20402;-72
2021/05/24 04:33:59;;;;;;;1.33;1.23;;;7.60;99.90;;;;;;5073750;28;20222;-71
2021/05/24 04:36:24;;;;;;;5.03;1.20;;;7.60;99.90;;;;;;5073725;28;20179;-72
2021/05/24 04:38:50;;;;;;;1.53;1.13;;;7.60;99.90;;;;;;5073943;28;20226;-71
2021/05/24 04:41:16;;;;;;;0.87;0.87;;;7.70;99.90;;;;;;5073950;28;20210;-72
2021/05/24 04:43:42;;;;;;;0.70;0.60;;;7.90;99.90;;;;;;5073825;28;20183;-72
2021/05/24 04:46:08;;;;;;;0.63;0.63;;;7.70;99.90;;;;;;5073768;28;20179;-71
2021/05/24 04:48:34;;;;;;;2.58;0.88;;;7.90;99.90;;;;;;5073728;28;20175;-72
2021/05/24 04:51:01;;;;;;;0.68;0.68;;;8.00;99.90;;;;;;5073747;28;20568;-72
2021/05/24 04:53:27;;;;;;;0.60;0.60;;;8.00;99.90;;;;;;5073658;28;20183;-73
2021/05/24 04:55:52;;;;;;;3.33;1.07;;;8.10;99.90;;;;;;5073395;28;20164;-72
2021/05/24 04:58:19;;;;;;;0.70;0.70;;;8.00;99.90;;;;;;5073713;28;20190;-72
2021/05/24 05:00:46;;;;;;;0.88;0.88;;;8.00;99.90;;;;;;5073655;28;20675;-72
2021/05/24 05:03:11;;;;;;;0.95;0.90;;;8.10;99.90;;;;;;5073716;28;20184;-71
2021/05/24 05:05:37;;;;;;;1.10;1.00;;;8.10;99.90;;;;;;5073538;28;20185;-73
2021/05/24 05:08:03;;;;;;;7.43;1.17;;;8.20;99.90;;;;;;5073609;28;20513;-72
2021/05/24 05:10:28;;;;;;;0.70;0.70;;;8.40;99.90;;;;;;5073493;28;20255;-72
2021/05/24 05:12:54;;;;;;;1.13;1.03;;;8.30;99.90;;;;;;5073809;28;20778;-72
2021/05/24 05:15:20;;;;;;;0.50;0.50;;;8.40;99.90;;;;;;5073346;28;20193;-72
2021/05/24 05:17:46;;;;;;;0.77;0.77;;;8.50;99.90;;;;;;5073578;28;20177;-72
2021/05/24 05:20:12;;;;;;;0.60;0.60;;;8.30;99.90;;;;;;5073362;28;20203;-72
2021/05/24 05:22:38;;;;;;;0.82;0.82;;;8.40;99.90;;;;;;5072133;28;20627;-72
2021/05/24 05:25:05;;;;;;;0.70;0.70;;;8.70;99.90;;;;;;5073252;28;20208;-72
2021/05/24 05:27:31;;;;;;;0.73;0.73;;;9.00;99.90;;;;;;5073653;28;20188;-72
2021/05/24 05:29:57;;;;;;;0.63;0.63;;;9.10;99.90;;;;;;5076446;28;20174;-72
2021/05/24 05:32:22;;;;;;;0.70;0.70;;;9.10;99.90;;;;;;5077711;28;20885;-71
2021/05/24 05:34:48;;;;;;;1.33;0.97;;;9.30;99.90;;;;;;5077205;28;20262;-72
2021/05/24 05:37:14;;;;;;;0.73;0.73;;;9.50;99.90;;;;;;5077204;28;20180;-73
2021/05/24 05:39:40;;;;;;;0.57;0.57;;;9.60;99.90;;;;;;5077234;28;20193;-72
2021/05/24 05:42:05;;;;;;;0.90;0.80;;;9.60;99.90;;;;;;5077794;28;20253;-72
2021/05/24 05:44:31;;;;;;;1.27;1.10;;;9.80;99.90;;;;;;5077092;28;20182;-72
2021/05/24 05:46:57;;;;;;;4.70;0.83;;;10.20;99.90;;;;;;5076963;28;20223;-72
2021/05/24 05:49:23;;;;;;;1.37;1.27;;;10.30;99.90;;;;;;5077250;28;20165;-72
2021/05/24 05:51:48;;;;;;;3.60;1.52;;;10.40;99.90;;;;;;5076797;28;20166;-72
2021/05/24 05:54:14;;;;;;;1.00;0.90;;;10.50;99.80;;;;;;5076674;28;20281;-72
2021/05/24 05:56:40;;;;;;;1.37;1.27;;;10.60;99.80;;;;;;5076656;28;20197;-73
2021/05/24 05:59:05;;;;;;;2.10;1.67;;;10.80;99.80;;;;;;5077166;28;20220;-72
2021/05/24 06:01:31;;;;;;;1.90;1.70;;;11.00;99.90;;;;;;5076837;28;20662;-73
2021/05/24 06:03:57;;;;;;;4.83;2.90;;;11.10;99.60;;;;;;5076684;28;20192;-72
2021/05/24 06:06:24;;;;;;;4.20;2.70;;;11.30;99.50;;;;;;5076550;28;20314;-72
2021/05/24 06:08:49;;;;;;;3.58;2.25;;;11.40;98.90;;;;;;5076566;28;20546;-71
2021/05/24 06:11:15;;;;;;;3.50;2.00;;;11.40;98.60;;;;;;5076751;28;20256;-72
2021/05/24 06:13:41;;;;;;;8.70;2.10;;;11.60;98.70;;;;;;5076522;28;20280;-72
2021/05/24 06:16:07;;;;;;;1.63;1.00;;;11.90;98.50;;;;;;5076380;28;20169;-72
2021/05/24 06:18:32;;;;;;;1.30;1.20;;;12.10;97.80;;;;;;5076552;28;20203;-72
2021/05/24 06:20:58;;;;;;;2.63;1.07;;;12.40;97.70;;;;;;5077025;28;20451;-72
2021/05/24 06:23:24;;;;;;;1.07;0.80;;;12.70;97.60;;;;;;5076489;28;20173;-71
2021/05/24 06:25:50;;;;;;;0.90;0.90;;;13.00;97.00;;;;;;5076118;28;20428;-72
2021/05/24 06:28:15;;;;;;;1.53;1.43;;;13.40;96.30;;;;;;5076302;28;20223;-72
2021/05/24 06:30:41;;;;;;;1.50;1.40;;;13.90;95.40;;;;;;5076450;28;20177;-72
2021/05/24 06:33:07;;;;;;;1.57;1.10;;;14.20;94.60;;;;;;5076247;28;20172;-72
2021/05/24 06:35:34;;;;;;;1.53;1.20;;;14.70;93.20;;;;;;5075954;28;20432;-72
2021/05/24 06:38:00;;;;;;;1.70;1.60;;;15.00;92.00;;;;;;5074756;28;20958;-72
2021/05/24 06:40:26;;;;;;;1.70;1.20;;;15.30;91.10;;;;;;5075425;28;20815;-72
2021/05/24 06:42:52;;;;;;;1.00;0.90;;;15.70;90.50;;;;;;5076068;28;20399;-72
2021/05/24 06:45:19;;;;;;;1.00;0.90;;;16.00;89.90;;;;;;5075750;28;20426;-72
2021/05/24 06:47:45;;;;;;;1.27;1.00;;;16.20;87.50;;;;;;5076088;28;20214;-72
2021/05/24 06:50:11;;;;;;;1.33;1.23;;;16.50;85.80;;;;;;5076022;28;20478;-72
2021/05/24 06:52:37;;;;;;;1.90;1.10;;;16.90;84.70;;;;;;5075967;28;20400;-72
2021/05/24 06:55:04;;;;;;;1.30;1.03;;;17.50;83.20;;;;;;5075573;28;20796;-72
2021/05/24 06:57:30;;;;;;;1.10;1.00;;;18.30;80.20;;;;;;5075773;28;20171;-72
2021/05/24 06:59:55;;;;;;;1.03;0.93;;;19.00;74.10;;;;;;5075726;28;20991;-73
2021/05/24 07:02:21;;;;;;;1.43;0.73;;;19.80;71.00;;;;;;5075792;28;20214;-73
2021/05/24 07:04:47;;;;;;;1.63;0.83;;;20.20;67.40;;;;;;5075722;28;20185;-73
2021/05/24 07:07:13;;;;;;;5.57;1.23;;;20.50;63.90;;;;;;5075556;28;20196;-73
2021/05/24 07:09:39;;;;;;;1.63;1.10;;;20.90;65.20;;;;;;5075412;28;20205;-73
2021/05/24 07:12:06;;;;;;;1.80;1.70;;;21.00;62.90;;;;;;5075726;28;20169;-72
2021/05/24 07:14:31;;;;;;;2.27;1.70;;;21.00;63.20;;;;;;5074072;28;20431;-72
2021/05/24 07:16:57;;;;;;;1.73;1.60;;;21.00;62.00;;;;;;5075365;28;20407;-72
2021/05/24 07:19:23;;;;;;;1.77;1.67;;;21.00;61.80;;;;;;5075424;28;20169;-72
2021/05/24 07:21:49;;;;;;;3.07;2.07;;;20.90;58.70;;;;;;5075478;28;20166;-73
2021/05/24 07:24:14;;;;;;;2.80;1.93;;;20.90;58.40;;;;;;5075463;28;20193;-72
2021/05/24 07:26:40;;;;;;;3.37;2.30;;;20.50;58.10;;;;;;5075184;28;20200;-72
2021/05/24 07:29:06;;;;;;;1.70;1.60;;;19.90;59.10;;;;;;5075253;28;20270;-73
2021/05/24 07:31:32;;;;;;;2.90;2.57;;;19.80;58.50;;;;;;5075173;28;20406;-73
2021/05/24 07:33:57;;;;;;;3.70;2.83;;;19.80;57.50;;;;;;5075109;28;20192;-72
2021/05/24 07:36:23;;;;;;;3.27;2.30;;;19.40;58.10;;;;;;5074750;28;20216;-73
2021/05/24 07:38:48;;;;;;;3.47;1.60;;;19.30;61.00;;;;;;5075383;28;20176;-72
2021/05/24 07:41:15;;;;;;;2.00;0.80;;;19.30;60.60;;;;;;5074802;28;20199;-72
2021/05/24 07:43:42;;;;;;;1.30;0.60;;;19.10;59.10;;;;;;5074830;28;20263;-72
2021/05/24 07:46:08;;;;;;;1.03;0.73;;;18.50;62.20;;;;;;5073379;28;20929;-73
2021/05/24 07:48:34;;;;;;;0.73;0.60;;;18.50;63.40;;;;;;5074917;28;20403;-72
2021/05/24 07:51:03;;;;;;;1.77;0.80;;;18.70;62.90;;;;;;5074851;28;20971;-73
2021/05/24 07:53:29;;;;;;;0.70;0.70;;;18.70;61.00;;;;;;5073465;28;20167;-72
2021/05/24 07:55:55;;;;;;;0.70;0.70;;;18.50;60.70;;;;;;5074469;28;20490;-73
2021/05/24 07:58:21;;;;;;;2.40;0.60;;;18.40;60.80;;;;;;5074660;28;20401;-71
2021/05/24 08:00:46;;;;;;;0.47;0.47;;;18.40;62.40;;;;;;5074638;28;20213;-72
2021/05/24 08:03:12;;;;;;;1.13;0.70;;;18.70;59.70;;;;;;5074596;28;20167;-73
2021/05/24 08:05:38;;;;;;;0.60;0.60;;;19.10;57.50;;;;;;5074133;28;20197;-72
2021/05/24 08:08:04;;;;;;;0.93;0.60;;;19.40;57.50;;;;;;5074577;28;20200;-73
2021/05/24 08:10:29;;;;;;;1.03;0.60;;;19.70;55.60;;;;;;5074303;28;20701;-72
2021/05/24 08:12:55;;;;;;;0.60;0.53;;;19.80;55.10;;;;;;5074628;28;20496;-72
2021/05/24 08:15:32;;;;;;;1.47;0.60;;;20.40;53.30;;;;;;5074018;28;20198;-72
2021/05/24 08:18:08;;;;;;;0.90;0.70;;;20.60;52.20;;;;;;5074340;28;20193;-72
2021/05/24 08:20:36;;;;;;;2.40;0.60;;;20.60;51.60;;;;;;5074535;28;20488;-72
2021/05/24 08:23:04;;;;;;;2.47;0.70;;;20.00;51.30;;;;;;5074121;28;20431;-72
2021/05/24 08:25:30;;;;;;;0.50;0.50;;;19.30;51.90;;;;;;5073920;28;20938;-72
2021/05/24 08:27:56;;;;;;;0.50;0.50;;;19.20;53.30;;;;;;5074236;28;20403;-71
2021/05/24 08:30:22;;;;;;;1.00;0.90;;;19.20;51.60;;;;;;5074149;28;20225;-72
2021/05/24 08:32:48;;;;;;;0.57;0.57;;;18.90;52.40;;;;;;5074099;28;20195;-73
2021/05/24 08:35:14;;;;;;;0.73;0.60;;;18.50;53.10;;;;;;5073888;28;20433;-72
2021/05/24 08:37:39;;;;;;;0.60;0.60;;;18.70;53.30;;;;;;5074040;28;20505;-72
2021/05/24 08:40:07;;;;;;;1.13;0.70;;;18.80;52.40;;;;;;5073855;28;20192;-72
2021/05/24 08:42:37;;;;;;;0.60;0.50;;;19.20;52.60;;;;;;5073717;28;20410;-72
2021/05/24 08:45:04;;;;;;;0.70;0.70;;;19.20;52.50;;;;;;5073712;28;20451;-73
2021/05/24 08:47:31;;;;;;;0.60;0.60;;;18.90;52.50;;;;;;5073633;28;20410;-72
2021/05/24 08:49:58;;;;;;;0.80;0.60;;;18.70;52.40;;;;;;5074088;28;20852;-73
2021/05/24 08:52:24;;;;;;;0.80;0.63;;;18.90;52.10;;;;;;5073730;28;20444;-72
2021/05/24 08:54:51;;;;;;;0.60;0.50;;;19.00;51.80;;;;;;5073501;28;20986;-72
2021/05/24 08:57:16;;;;;;;0.80;0.63;;;19.30;50.40;;;;;;5073517;28;20457;-72
2021/05/24 08:59:42;;;;;;;1.93;0.50;;;19.50;48.60;;;;;;5073612;28;20459;-72
2021/05/24 09:02:08;;;;;;;0.50;0.50;;;19.20;47.90;;;;;;5073709;28;20183;-72
2021/05/24 09:04:48;;;;;;;1.70;0.57;;;19.30;48.70;;;;;;5073237;28;20196;-72
2021/05/24 09:07:16;;;;;;;0.93;0.60;;;19.00;49.30;;;;;;5073387;28;20403;-73
2021/05/24 09:10:02;;;;;;;0.50;0.50;;;18.80;49.60;;;;;;5073368;28;20424;-71
2021/05/24 09:12:32;;;;;;;0.63;0.63;;;18.80;49.80;;;;;;5073335;28;20901;-71
2021/05/24 09:15:03;;;;;;;1.03;0.93;;;18.50;50.20;;;;;;5073316;28;20946;-72
2021/05/24 09:17:50;;;;;;;1.53;1.37;;;18.80;50.90;;;;;;5073617;28;20730;-72
2021/05/24 09:20:26;;;;;;;0.67;0.50;;;18.40;49.70;;;;;;5073509;28;20864;-72
2021/05/24 09:23:04;;;;;;;0.60;0.60;;;18.40;50.50;;;;;;5073580;28;20458;-72
2021/05/24 09:25:52;;;;;;;0.60;0.60;;;18.60;50.70;;;;;;5073056;28;20433;-72
2021/05/24 09:28:27;;;;;;;0.73;0.70;;;19.10;51.00;;;;;;5072118;28;20765;-72
2021/05/24 09:30:58;;;;;;;1.50;0.67;;;19.60;50.30;;;;;;5073433;28;20757;-72
2021/05/24 09:33:24;;;;;;;0.53;0.53;;;19.30;50.50;;;;;;5073591;28;20413;-72
2021/05/24 09:35:51;;;;;;;0.70;0.70;;;19.10;49.40;;;;;;5073034;28;20399;-72
2021/05/24 09:38:19;;;;;;;1.00;0.60;;;19.10;49.80;;;;;;5073274;28;20201;-72
2021/05/24 09:40:55;;;;;;;2.30;0.80;;;18.60;51.70;;;;;;5073199;28;20847;-72
2021/05/24 09:43:27;;;;;;;0.90;0.80;;;18.40;52.00;;;;;;5073249;28;20397;-71
2021/05/24 09:46:08;;;;;;;2.33;0.73;;;18.00;52.00;;;;;;5072963;28;20863;-72
2021/05/24 09:48:34;;;;;;;0.60;0.60;;;17.70;52.30;;;;;;5073303;28;20402;-73
2021/05/24 09:51:03;;;;;;;0.73;0.60;;;17.30;52.70;;;;;;5073176;28;20827;-71
2021/05/24 09:53:29;;;;;;;0.60;0.50;;;16.90;53.60;;;;;;5073039;28;20454;-71
2021/05/24 09:56:01;;;;;;;0.53;0.50;;;16.80;53.30;;;;;;5072857;28;20412;-72
2021/05/24 09:58:27;;;;;;;0.60;0.50;;;16.90;54.70;;;;;;5073243;28;20622;-72
2021/05/24 10:01:01;;;;;;;0.50;0.50;;;17.10;54.00;;;;;;5072953;28;20447;-72
2021/05/24 10:03:31;;;;;;;0.93;0.67;;;17.00;53.90;;;;;;5072976;28;20894;-72
2021/05/24 10:05:57;;;;;;;1.80;0.77;;;17.10;54.60;;;;;;5072742;28;20825;-73
2021/05/24 10:08:24;;;;;;;1.10;0.80;;;17.20;55.10;;;;;;5072677;28;20777;-72
2021/05/24 10:10:50;;;;;;;0.60;0.60;;;17.30;55.20;;;;;;5073365;28;20422;-72
2021/05/24 10:13:17;;;;;;;0.70;0.70;;;17.20;55.00;;;;;;5072837;28;20399;-72
2021/05/24 10:15:44;;;;;;;0.50;0.50;;;16.90;54.60;;;;;;5073665;28;20263;-72
2021/05/24 10:18:11;;;;;;;3.60;0.60;;;16.70;54.70;;;;;;5076656;28;20810;-73
2021/05/24 10:20:37;;;;;;;1.47;0.73;;;16.90;55.20;;;;;;5076526;28;20447;-72
2021/05/24 10:23:03;;;;;;;2.50;0.87;;;17.10;54.60;;;;;;5076263;28;20399;-72
2021/05/24 10:25:29;;;;;;;1.03;0.70;;;17.40;55.00;;;;;;5076115;28;20200;-72
2021/05/24 10:27:58;;;;;;;0.93;0.80;;;18.00;53.60;;;;;;5076326;28;20790;-73
2021/05/24 10:30:25;;;;;;;0.50;0.50;;;18.00;53.50;;;;;;5076499;28;20445;-72
2021/05/24 10:32:58;;;;;;;0.60;0.60;;;17.70;51.90;;;;;;5076283;28;20775;-72
2021/05/24 10:35:38;;;;;;;2.50;0.90;;;18.00;52.70;;;;;;5076056;28;20428;-72
2021/05/24 10:38:22;;;;;;;0.57;0.57;;;18.40;52.90;;;;;;5076180;28;20404;-73
2021/05/24 10:40:49;;;;;;;0.67;0.67;;;19.00;50.60;;;;;;5076096;28;20456;-72
2021/05/24 10:43:17;;;;;;;0.90;0.60;;;19.30;49.80;;;;;;5076124;28;20469;-72
2021/05/24 10:45:44;;;;;;;1.37;0.70;;;19.30;48.70;;;;;;5075580;28;20439;-72
2021/05/24 10:48:18;;;;;;;1.40;0.90;;;19.40;49.30;;;;;;5076121;28;20411;-72
2021/05/24 10:51:07;;;;;;;0.70;0.70;;;19.30;49.10;;;;;;5076090;28;20461;-73
2021/05/24 10:53:41;;;;;;;0.70;0.70;;;19.70;49.70;;;;;;5075913;28;20406;-72
2021/05/24 10:56:16;;;;;;;0.70;0.70;;;19.50;47.80;;;;;;5075698;28;20460;-72
2021/05/24 10:58:42;;;;;;;0.83;0.60;;;19.50;48.10;;;;;;5075949;28;20457;-72
2021/05/24 11:01:08;;;;;;;1.03;0.70;;;19.10;48.20;;;;;;5075864;28;20456;-73
2021/05/24 11:03:33;;;;;;;0.60;0.57;;;18.70;48.40;;;;;;5075628;28;20233;-72
2021/05/24 11:06:13;;;;;;;1.17;0.60;;;18.30;49.30;;;;;;5075595;28;20507;-71
2021/05/24 11:08:42;;;;;;;0.60;0.60;;;18.10;49.20;;;;;;5075580;28;20239;-72
2021/05/24 11:11:28;;;;;;;1.00;0.70;;;17.70;46.60;;;;;;5075699;28;20400;-72
2021/05/24 11:14:05;;;;;;;0.53;0.50;;;17.40;47.50;;;;;;5075458;28;20435;-72
2021/05/24 11:16:35;;;;;;;0.40;0.40;;;17.40;47.90;;;;;;5075169;28;20482;-72
2021/05/24 11:19:11;;;;;;;0.73;0.40;;;17.50;47.50;;;;;;5075445;28;20461;-72
2021/05/24 11:21:39;;;;;;;1.73;0.50;;;17.70;47.80;;;;;;5075432;28;20474;-71
2021/05/24 11:27:16;;;;;;;0.80;0.63;;;17.30;48.30;;;;;;5075154;28;20442;-72
2021/05/24 11:29:47;;;;;;;0.73;0.50;;;17.40;48.90;;;;;;5075325;28;20796;-72
2021/05/24 11:32:21;;;;;;;1.00;0.90;;;17.50;48.90;;;;;;5075120;28;20411;-72
2021/05/24 11:34:47;;;;;;;1.47;0.70;;;17.40;48.70;;;;;;5075030;28;20484;-72
2021/05/24 11:37:13;;;;;;;2.10;1.00;;;17.30;49.60;;;;;;5074930;28;20487;-72
2021/05/24 11:39:45;;;;;;;1.80;0.60;;;17.40;50.70;;;;;;5075012;28;20174;-72
2021/05/24 11:42:18;;;;;;;3.30;0.90;;;17.40;49.10;;;;;;5074935;28;20272;-72
2021/05/24 11:44:47;;;;;;;0.53;0.53;;;17.30;49.10;;;;;;5074842;28;20468;-72
2021/05/24 11:47:20;;;;;;;5.07;1.17;;;17.20;49.60;;;;;;5074709;28;20423;-72
2021/05/24 11:49:48;;;;;;;0.80;0.80;;;17.00;50.40;;;;;;5075128;28;20400;-72
2021/05/24 11:52:18;;;;;;;1.10;0.60;;;16.80;50.60;;;;;;5074658;28;20404;-72
2021/05/24 11:54:48;;;;;;;0.70;0.70;;;16.80;50.80;;;;;;5074704;28;20426;-72
2021/05/24 11:57:15;;;;;;;0.93;0.80;;;16.70;51.00;;;;;;5074443;28;20834;-72
2021/05/24 11:59:40;;;;;;;0.63;0.60;;;16.70;51.10;;;;;;5074430;28;20404;-72
2021/05/24 12:02:08;;;;;;;0.60;0.50;;;16.80;51.20;;;;;;5074594;28;20499;-72
2021/05/24 12:04:41;;;;;;;2.20;0.70;;;16.80;51.50;;;;;;5074477;28;20191;-72
2021/05/24 12:07:14;;;;;;;0.70;0.60;;;16.80;50.90;;;;;;5074264;28;20494;-72
2021/05/24 12:09:46;;;;;;;1.00;0.70;;;17.10;49.80;;;;;;5074400;28;20419;-72
2021/05/24 12:12:14;;;;;;;1.73;1.00;;;17.10;50.50;;;;;;5074730;28;20457;-72
2021/05/24 12:14:43;;;;;;;0.80;0.80;;;17.40;49.60;;;;;;5074186;28;20461;-72
2021/05/24 12:17:22;;;;;;;1.80;0.87;;;17.60;49.70;;;;;;5074177;28;20483;-72
2021/05/24 12:19:51;;;;;;;0.83;0.80;;;17.80;48.80;;;;;;5074065;28;20447;-72
2021/05/24 12:22:18;;;;;;;0.70;0.70;;;17.60;48.40;;;;;;5074146;28;20411;-72
2021/05/24 12:24:46;;;;;;;0.60;0.60;;;17.50;49.00;;;;;;5074035;28;20497;-72
2021/05/24 12:27:14;;;;;;;2.03;0.63;;;17.60;49.10;;;;;;5073952;28;20396;-72
2021/05/24 12:29:54;;;;;;;0.60;0.60;;;17.30;49.30;;;;;;5072897;28;20412;-73
2021/05/24 12:32:38;;;;;;;0.70;0.70;;;17.20;49.50;;;;;;5073984;28;20753;-72
2021/05/24 12:35:25;;;;;;;0.80;0.60;;;17.50;50.10;;;;;;5072736;28;20418;-73
2021/05/24 12:38:05;;;;;;;0.93;0.70;;;17.20;50.10;;;;;;5073231;28;20412;-72
2021/05/24 12:40:31;;;;;;;1.10;0.70;;;17.50;50.00;;;;;;5072714;28;20450;-72
2021/05/24 12:42:57;;;;;;;0.57;0.57;;;17.50;49.90;;;;;;5073711;28;20431;-72
2021/05/24 12:45:27;;;;;;;4.83;1.00;;;17.60;50.60;;;;;;5073442;28;20427;-72
2021/05/24 12:47:57;;;;;;;0.63;0.60;;;17.70;51.50;;;;;;5072753;28;20396;-72
2021/05/24 12:50:23;;;;;;;1.13;1.00;;;17.90;52.60;;;;;;5073953;28;20400;-72
2021/05/24 12:52:48;;;;;;;0.60;0.60;;;18.00;52.30;;;;;;5073938;28;20412;-73
2021/05/24 12:55:18;;;;;;;1.03;0.90;;;17.80;52.90;;;;;;5073348;28;20278;-72